CW4868 Weather Reports


Display with metric or nautical units.
time (UTC)temp
F
wind
direction
speed
MPH
gust
MPH
rain 1hr
in
rain 24hr
in
rain mn
in
humidity
%
barometer
mb
20210918194641 80 6 4.0 11.0 0.08 0.12 0.08 82 1015.4
20210918193027 87 349 0.0 0.0 0.00 0.04 0.00 70 1015.2
20210918184551 89 5 0.0 0.0 0.00 0.04 0.00 66 1015.5
20210918183036 88 357 1.0 4.0 0.00 0.04 0.00 72 1015.8
20210918181512 87 343 0.0 0.0 0.00 0.04 0.00 74 1016.3
20210918174507 86 359 0.0 2.0 0.00 0.47 0.00 75 1016.6
20210918173146 86 343 0.0 1.0 0.00 0.47 0.00 77 1016.8
20210918171608 85 352 0.0 2.0 0.00 0.47 0.00 74 1017.0
20210918164701 86 319 2.0 4.0 0.00 1.12 0.00 73 1017.3
20210918163037 86 307 3.0 7.0 0.00 1.12 0.00 74 1017.5
20210918154632 83 313 2.0 5.0 0.00 1.12 0.00 84 1018.1
20210918153019 83 306 2.0 4.0 0.00 1.12 0.00 83 1018.1
20210918151553 82 319 3.0 5.0 0.00 1.12 0.00 85 1018.1
20210918144604 80 317 4.0 6.0 0.00 1.12 0.00 88 1018.0
20210918143010 80 308 1.0 5.0 0.00 1.12 0.00 88 1017.8
20210918141550 80 307 1.0 4.0 0.00 1.12 0.00 87 1017.7
20210918134554 78 307 2.0 5.0 0.00 1.12 0.00 93 1017.7
20210918133131 77 314 0.0 4.0 0.00 1.12 0.00 95 1017.6
20210918131516 76 324 0.0 0.0 0.00 1.12 0.00 95 1017.5
20210918123055 74 312 0.0 2.0 0.00 1.12 0.00 97 1017.5
20210918113028 74 313 0.0 1.0 0.00 1.12 0.00 97 1017.4
20210918103049 74 338 0.0 0.0 0.00 1.12 0.00 97 1017.1
20210918101615 74 338 0.0 0.0 0.00 1.12 0.00 97 1017.0
20210918093117 74 338 0.0 0.0 0.00 1.12 0.00 97 1016.8
20210918091541 74 338 0.0 0.0 0.00 1.12 0.00 97 1016.8
20210918084632 74 338 0.0 0.0 0.00 1.12 0.00 96 1016.6
20210918081544 74 338 0.0 0.0 0.00 1.12 0.00 97 1016.5
20210918074534 74 338 0.0 0.0 0.00 1.12 0.00 97 1016.7
20210918073055 74 338 0.0 0.0 0.00 1.12 0.00 97 1016.8
20210918071518 74 338 0.0 0.0 0.00 1.12 0.00 97 1017.0
20210918064605 74 338 0.0 0.0 0.00 1.12 0.00 97 1017.4
20210918063145 74 338 0.0 0.0 0.00 1.12 0.00 97 1017.6
20210918054544 73 338 0.0 0.0 0.00 1.12 0.00 97 1017.7
20210918053124 73 338 0.0 0.0 0.00 1.12 0.00 97 1017.5
20210918050002 74 338 0.0 0.0 0.00 1.12 1.12 97 1017.4
20210918043051 74 338 0.0 0.0 0.00 1.12 1.12 97 1017.4
20210918041505 74 338 0.0 0.0 0.00 1.12 1.12 97 1017.5
20210918034534 74 338 0.0 0.0 0.00 1.12 1.12 96 1017.6
20210918033032 75 338 0.0 0.0 0.00 1.12 1.12 96 1017.4
20210918031620 75 338 0.0 0.0 0.00 1.12 1.12 96 1017.4
20210918024609 75 337 0.0 0.0 0.00 1.12 1.12 96 1017.7
20210918023049 75 357 0.0 0.0 0.00 1.12 1.12 96 1017.9
20210918021506 75 357 0.0 0.0 0.00 1.12 1.12 96 1017.9
20210918014631 75 357 0.0 0.0 0.00 1.12 1.12 95 1017.7
20210918013118 75 357 0.0 0.0 0.00 1.12 1.12 95 1017.6
20210918011539 76 357 0.0 0.0 0.00 1.12 1.12 95 1017.5
20210918004550 76 357 0.0 0.0 0.00 1.12 1.12 94 1017.2
20210917234815 78 12 0.0 0.0 0.04 1.12 1.12 93 1017.1
20210917233047 78 340 0.0 3.0 0.04 1.12 1.12 91 1017.1
20210917231659 80 359 0.0 0.0 0.02 1.10 1.10 91 1017.1
20210917224635 81 338 0.0 0.0 0.00 1.08 1.08 87 1016.8
20210917223126 81 329 0.0 1.0 0.00 1.08 1.08 86 1016.8
20210917221723 81 323 0.0 0.0 0.00 1.08 1.08 85 1016.6
20210917214529 81 308 0.0 0.0 0.00 1.08 1.08 87 1016.5
20210917213041 81 4 0.0 0.0 0.00 1.08 1.08 88 1016.4
20210917211505 81 355 0.0 0.0 0.00 1.08 1.08 89 1016.4
20210917204526 81 5 0.0 3.0 0.00 1.08 1.08 90 1016.5
20210917203134 81 327 0.0 0.0 0.00 1.08 1.08 89 1016.5